sensor_id;sensor_type;location;lat;lon;timestamp;P1;durP1;ratioP1;P2;durP2;ratioP2
33403;SDS011;19751;40.274;18.268;2023-07-29T00:02:05;8.15;;;4.95;;
33403;SDS011;19751;40.274;18.268;2023-07-29T00:04:31;11.70;;;5.78;;
33403;SDS011;19751;40.274;18.268;2023-07-29T00:06:56;11.65;;;5.65;;
33403;SDS011;19751;40.274;18.268;2023-07-29T00:09:22;10.45;;;6.22;;
33403;SDS011;19751;40.274;18.268;2023-07-29T00:11:47;8.50;;;5.80;;
33403;SDS011;19751;40.274;18.268;2023-07-29T00:14:13;9.68;;;5.10;;
33403;SDS011;19751;40.274;18.268;2023-07-29T00:16:38;10.77;;;5.15;;
33403;SDS011;19751;40.274;18.268;2023-07-29T00:19:04;8.57;;;5.35;;
33403;SDS011;19751;40.274;18.268;2023-07-29T00:21:29;12.55;;;5.95;;
33403;SDS011;19751;40.274;18.268;2023-07-29T00:23:55;10.77;;;5.53;;
33403;SDS011;19751;40.274;18.268;2023-07-29T00:26:22;8.88;;;5.18;;
33403;SDS011;19751;40.274;18.268;2023-07-29T00:28:51;10.85;;;5.63;;
33403;SDS011;19751;40.274;18.268;2023-07-29T00:31:16;10.43;;;5.72;;
33403;SDS011;19751;40.274;18.268;2023-07-29T00:33:42;7.60;;;5.07;;
33403;SDS011;19751;40.274;18.268;2023-07-29T00:36:07;9.23;;;5.25;;
33403;SDS011;19751;40.274;18.268;2023-07-29T00:38:33;6.20;;;4.55;;
33403;SDS011;19751;40.274;18.268;2023-07-29T00:40:59;10.85;;;6.82;;
33403;SDS011;19751;40.274;18.268;2023-07-29T00:43:27;11.30;;;5.68;;
33403;SDS011;19751;40.274;18.268;2023-07-29T00:45:52;17.02;;;6.38;;
33403;SDS011;19751;40.274;18.268;2023-07-29T00:48:18;11.43;;;6.05;;
33403;SDS011;19751;40.274;18.268;2023-07-29T00:50:43;11.40;;;5.45;;
33403;SDS011;19751;40.274;18.268;2023-07-29T00:53:09;10.30;;;5.45;;
33403;SDS011;19751;40.274;18.268;2023-07-29T00:55:35;8.85;;;4.72;;
33403;SDS011;19751;40.274;18.268;2023-07-29T00:58:00;8.55;;;5.15;;
33403;SDS011;19751;40.274;18.268;2023-07-29T01:00:26;10.73;;;4.07;;
33403;SDS011;19751;40.274;18.268;2023-07-29T01:02:52;7.10;;;3.85;;
33403;SDS011;19751;40.274;18.268;2023-07-29T01:05:19;6.78;;;3.78;;
33403;SDS011;19751;40.274;18.268;2023-07-29T01:13:47;9.57;;;4.18;;
33403;SDS011;19751;40.274;18.268;2023-07-29T01:16:41;9.80;;;4.07;;
33403;SDS011;19751;40.274;18.268;2023-07-29T01:19:14;8.95;;;4.55;;
33403;SDS011;19751;40.274;18.268;2023-07-29T01:21:58;11.00;;;4.13;;
33403;SDS011;19751;40.274;18.268;2023-07-29T01:24:23;6.40;;;3.33;;
33403;SDS011;19751;40.274;18.268;2023-07-29T01:26:49;5.78;;;4.25;;
33403;SDS011;19751;40.274;18.268;2023-07-29T01:29:14;7.95;;;3.60;;
33403;SDS011;19751;40.274;18.268;2023-07-29T01:31:42;6.43;;;3.60;;
33403;SDS011;19751;40.274;18.268;2023-07-29T01:34:12;7.72;;;3.75;;
33403;SDS011;19751;40.274;18.268;2023-07-29T01:36:42;11.15;;;4.07;;
33403;SDS011;19751;40.274;18.268;2023-07-29T01:39:10;6.10;;;3.53;;
33403;SDS011;19751;40.274;18.268;2023-07-29T01:41:37;10.25;;;3.90;;
33403;SDS011;19751;40.274;18.268;2023-07-29T01:44:04;6.93;;;3.85;;
33403;SDS011;19751;40.274;18.268;2023-07-29T01:46:32;7.75;;;4.63;;
33403;SDS011;19751;40.274;18.268;2023-07-29T01:48:59;6.22;;;3.58;;
33403;SDS011;19751;40.274;18.268;2023-07-29T01:51:24;10.38;;;4.50;;
33403;SDS011;19751;40.274;18.268;2023-07-29T01:53:50;6.65;;;3.90;;
33403;SDS011;19751;40.274;18.268;2023-07-29T01:56:15;6.57;;;3.75;;
33403;SDS011;19751;40.274;18.268;2023-07-29T01:58:41;8.52;;;3.78;;
33403;SDS011;19751;40.274;18.268;2023-07-29T02:01:06;9.25;;;3.95;;
33403;SDS011;19751;40.274;18.268;2023-07-29T02:03:32;5.80;;;3.33;;
33403;SDS011;19751;40.274;18.268;2023-07-29T02:05:58;6.70;;;3.28;;
33403;SDS011;19751;40.274;18.268;2023-07-29T02:08:23;6.18;;;3.58;;
33403;SDS011;19751;40.274;18.268;2023-07-29T02:10:49;5.95;;;3.10;;
33403;SDS011;19751;40.274;18.268;2023-07-29T02:13:14;6.63;;;4.22;;
33403;SDS011;19751;40.274;18.268;2023-07-29T02:15:39;8.73;;;3.33;;
33403;SDS011;19751;40.274;18.268;2023-07-29T02:18:05;6.20;;;3.67;;
33403;SDS011;19751;40.274;18.268;2023-07-29T02:20:32;6.72;;;3.45;;
33403;SDS011;19751;40.274;18.268;2023-07-29T02:22:57;7.93;;;3.45;;
33403;SDS011;19751;40.274;18.268;2023-07-29T02:25:23;6.35;;;3.92;;
33403;SDS011;19751;40.274;18.268;2023-07-29T02:27:48;10.73;;;4.18;;
33403;SDS011;19751;40.274;18.268;2023-07-29T02:30:14;6.70;;;3.65;;
33403;SDS011;19751;40.274;18.268;2023-07-29T02:32:39;7.88;;;3.35;;
33403;SDS011;19751;40.274;18.268;2023-07-29T02:35:05;7.50;;;4.03;;
33403;SDS011;19751;40.274;18.268;2023-07-29T02:37:31;9.75;;;3.83;;
33403;SDS011;19751;40.274;18.268;2023-07-29T02:39:56;8.02;;;3.53;;
33403;SDS011;19751;40.274;18.268;2023-07-29T02:42:22;5.40;;;3.30;;
33403;SDS011;19751;40.274;18.268;2023-07-29T02:44:47;9.82;;;4.20;;
33403;SDS011;19751;40.274;18.268;2023-07-29T02:47:13;8.45;;;3.67;;
33403;SDS011;19751;40.274;18.268;2023-07-29T02:49:38;6.47;;;3.70;;
33403;SDS011;19751;40.274;18.268;2023-07-29T02:52:04;7.72;;;4.00;;
33403;SDS011;19751;40.274;18.268;2023-07-29T02:54:30;8.45;;;4.10;;
33403;SDS011;19751;40.274;18.268;2023-07-29T02:56:55;7.00;;;3.88;;
33403;SDS011;19751;40.274;18.268;2023-07-29T02:59:21;10.40;;;4.30;;
33403;SDS011;19751;40.274;18.268;2023-07-29T03:01:46;5.78;;;4.40;;
33403;SDS011;19751;40.274;18.268;2023-07-29T03:04:12;8.68;;;3.95;;
33403;SDS011;19751;40.274;18.268;2023-07-29T03:06:38;14.82;;;4.05;;
33403;SDS011;19751;40.274;18.268;2023-07-29T03:09:03;6.88;;;3.58;;
33403;SDS011;19751;40.274;18.268;2023-07-29T03:11:30;6.72;;;3.38;;
33403;SDS011;19751;40.274;18.268;2023-07-29T03:13:56;8.20;;;3.55;;
33403;SDS011;19751;40.274;18.268;2023-07-29T03:16:22;6.60;;;3.63;;
33403;SDS011;19751;40.274;18.268;2023-07-29T03:18:48;8.20;;;3.83;;
33403;SDS011;19751;40.274;18.268;2023-07-29T03:21:14;7.10;;;4.55;;
33403;SDS011;19751;40.274;18.268;2023-07-29T03:23:40;6.40;;;3.63;;
33403;SDS011;19751;40.274;18.268;2023-07-29T03:26:06;9.10;;;4.30;;
33403;SDS011;19751;40.274;18.268;2023-07-29T03:28:35;7.13;;;4.10;;
33403;SDS011;19751;40.274;18.268;2023-07-29T03:31:08;6.50;;;3.13;;
33403;SDS011;19751;40.274;18.268;2023-07-29T03:33:34;7.13;;;3.33;;
33403;SDS011;19751;40.274;18.268;2023-07-29T03:35:59;5.78;;;3.13;;
33403;SDS011;19751;40.274;18.268;2023-07-29T03:38:25;7.15;;;3.47;;
33403;SDS011;19751;40.274;18.268;2023-07-29T03:40:51;7.13;;;3.58;;
33403;SDS011;19751;40.274;18.268;2023-07-29T03:43:16;6.50;;;3.20;;
33403;SDS011;19751;40.274;18.268;2023-07-29T03:45:42;6.28;;;3.65;;
33403;SDS011;19751;40.274;18.268;2023-07-29T03:48:08;6.43;;;3.85;;
33403;SDS011;19751;40.274;18.268;2023-07-29T03:50:34;10.95;;;3.28;;
33403;SDS011;19751;40.274;18.268;2023-07-29T03:53:00;6.28;;;3.42;;
33403;SDS011;19751;40.274;18.268;2023-07-29T03:55:27;5.95;;;3.60;;
33403;SDS011;19751;40.274;18.268;2023-07-29T03:57:54;8.85;;;3.20;;
33403;SDS011;19751;40.274;18.268;2023-07-29T04:00:20;13.93;;;4.22;;
33403;SDS011;19751;40.274;18.268;2023-07-29T04:02:46;8.50;;;3.88;;
33403;SDS011;19751;40.274;18.268;2023-07-29T04:05:11;5.20;;;3.15;;
33403;SDS011;19751;40.274;18.268;2023-07-29T04:07:37;9.23;;;3.83;;
33403;SDS011;19751;40.274;18.268;2023-07-29T04:10:02;9.82;;;4.03;;
33403;SDS011;19751;40.274;18.268;2023-07-29T04:12:30;9.07;;;3.88;;
33403;SDS011;19751;40.274;18.268;2023-07-29T04:14:55;9.00;;;3.80;;
33403;SDS011;19751;40.274;18.268;2023-07-29T04:17:21;8.25;;;3.78;;
33403;SDS011;19751;40.274;18.268;2023-07-29T04:19:46;5.28;;;3.70;;
33403;SDS011;19751;40.274;18.268;2023-07-29T04:22:12;6.95;;;3.35;;
33403;SDS011;19751;40.274;18.268;2023-07-29T04:24:37;6.75;;;3.20;;
33403;SDS011;19751;40.274;18.268;2023-07-29T04:27:03;7.45;;;3.28;;
33403;SDS011;19751;40.274;18.268;2023-07-29T04:29:29;8.57;;;3.90;;
33403;SDS011;19751;40.274;18.268;2023-07-29T04:31:54;4.38;;;2.83;;
33403;SDS011;19751;40.274;18.268;2023-07-29T04:34:20;7.85;;;3.88;;
33403;SDS011;19751;40.274;18.268;2023-07-29T04:36:46;9.40;;;3.65;;
33403;SDS011;19751;40.274;18.268;2023-07-29T04:39:12;9.98;;;4.30;;
33403;SDS011;19751;40.274;18.268;2023-07-29T04:41:37;6.10;;;3.40;;
33403;SDS011;19751;40.274;18.268;2023-07-29T04:44:03;5.82;;;3.28;;
33403;SDS011;19751;40.274;18.268;2023-07-29T04:46:28;8.25;;;3.25;;
33403;SDS011;19751;40.274;18.268;2023-07-29T04:48:54;6.07;;;3.10;;
33403;SDS011;19751;40.274;18.268;2023-07-29T04:51:19;8.57;;;3.60;;
33403;SDS011;19751;40.274;18.268;2023-07-29T04:53:45;5.30;;;2.72;;
33403;SDS011;19751;40.274;18.268;2023-07-29T04:56:11;6.30;;;2.83;;
33403;SDS011;19751;40.274;18.268;2023-07-29T04:58:36;7.82;;;3.17;;
33403;SDS011;19751;40.274;18.268;2023-07-29T05:01:02;7.35;;;3.13;;
33403;SDS011;19751;40.274;18.268;2023-07-29T05:03:28;6.47;;;3.13;;
33403;SDS011;19751;40.274;18.268;2023-07-29T05:05:54;5.40;;;2.97;;
33403;SDS011;19751;40.274;18.268;2023-07-29T05:08:21;4.68;;;2.60;;
33403;SDS011;19751;40.274;18.268;2023-07-29T05:10:53;4.00;;;2.60;;
33403;SDS011;19751;40.274;18.268;2023-07-29T05:13:19;7.88;;;3.10;;
33403;SDS011;19751;40.274;18.268;2023-07-29T05:15:45;4.43;;;2.63;;
33403;SDS011;19751;40.274;18.268;2023-07-29T05:18:12;6.93;;;2.63;;
33403;SDS011;19751;40.274;18.268;2023-07-29T05:20:38;3.53;;;2.20;;
33403;SDS011;19751;40.274;18.268;2023-07-29T05:23:03;5.00;;;2.75;;
33403;SDS011;19751;40.274;18.268;2023-07-29T05:25:29;4.75;;;3.00;;
33403;SDS011;19751;40.274;18.268;2023-07-29T05:27:54;7.80;;;3.22;;
33403;SDS011;19751;40.274;18.268;2023-07-29T05:30:20;7.55;;;3.25;;
33403;SDS011;19751;40.274;18.268;2023-07-29T05:32:45;5.05;;;2.78;;
33403;SDS011;19751;40.274;18.268;2023-07-29T05:35:11;8.27;;;2.83;;
33403;SDS011;19751;40.274;18.268;2023-07-29T05:37:40;5.13;;;2.53;;
33403;SDS011;19751;40.274;18.268;2023-07-29T05:40:06;5.35;;;2.40;;
33403;SDS011;19751;40.274;18.268;2023-07-29T05:42:33;8.30;;;2.83;;
33403;SDS011;19751;40.274;18.268;2023-07-29T05:44:59;4.18;;;2.58;;
33403;SDS011;19751;40.274;18.268;2023-07-29T05:47:25;3.25;;;2.10;;
33403;SDS011;19751;40.274;18.268;2023-07-29T05:49:51;4.68;;;2.88;;
33403;SDS011;19751;40.274;18.268;2023-07-29T05:52:17;4.45;;;2.90;;
33403;SDS011;19751;40.274;18.268;2023-07-29T05:54:42;3.53;;;2.03;;
33403;SDS011;19751;40.274;18.268;2023-07-29T05:57:09;2.65;;;1.90;;
33403;SDS011;19751;40.274;18.268;2023-07-29T05:59:35;4.72;;;2.33;;
33403;SDS011;19751;40.274;18.268;2023-07-29T06:02:00;2.97;;;2.13;;
33403;SDS011;19751;40.274;18.268;2023-07-29T06:04:26;5.80;;;2.40;;
33403;SDS011;19751;40.274;18.268;2023-07-29T06:06:51;4.43;;;2.00;;
33403;SDS011;19751;40.274;18.268;2023-07-29T06:09:17;3.33;;;2.55;;
33403;SDS011;19751;40.274;18.268;2023-07-29T06:11:42;5.55;;;2.70;;
33403;SDS011;19751;40.274;18.268;2023-07-29T06:14:08;7.53;;;2.60;;
33403;SDS011;19751;40.274;18.268;2023-07-29T06:16:33;5.07;;;2.95;;
33403;SDS011;19751;40.274;18.268;2023-07-29T06:18:59;2.65;;;2.15;;
33403;SDS011;19751;40.274;18.268;2023-07-29T06:21:24;4.47;;;2.72;;
33403;SDS011;19751;40.274;18.268;2023-07-29T06:23:50;3.83;;;2.03;;
33403;SDS011;19751;40.274;18.268;2023-07-29T06:26:15;4.65;;;2.50;;
33403;SDS011;19751;40.274;18.268;2023-07-29T06:28:41;5.68;;;2.65;;
33403;SDS011;19751;40.274;18.268;2023-07-29T06:31:06;4.85;;;2.50;;
33403;SDS011;19751;40.274;18.268;2023-07-29T06:33:32;6.72;;;2.72;;
33403;SDS011;19751;40.274;18.268;2023-07-29T06:35:57;5.53;;;2.72;;
33403;SDS011;19751;40.274;18.268;2023-07-29T06:38:23;12.52;;;3.03;;
33403;SDS011;19751;40.274;18.268;2023-07-29T06:40:48;10.88;;;3.88;;
33403;SDS011;19751;40.274;18.268;2023-07-29T06:43:14;23.40;;;6.72;;
33403;SDS011;19751;40.274;18.268;2023-07-29T06:45:39;11.90;;;4.35;;
33403;SDS011;19751;40.274;18.268;2023-07-29T06:48:05;6.88;;;2.83;;
33403;SDS011;19751;40.274;18.268;2023-07-29T06:50:30;5.13;;;2.30;;
33403;SDS011;19751;40.274;18.268;2023-07-29T06:52:56;5.68;;;2.17;;
33403;SDS011;19751;40.274;18.268;2023-07-29T06:55:21;4.05;;;2.13;;
33403;SDS011;19751;40.274;18.268;2023-07-29T06:57:47;3.08;;;1.85;;
33403;SDS011;19751;40.274;18.268;2023-07-29T07:00:12;4.18;;;2.15;;
33403;SDS011;19751;40.274;18.268;2023-07-29T07:02:38;3.72;;;2.30;;
33403;SDS011;19751;40.274;18.268;2023-07-29T07:05:04;3.75;;;1.98;;
33403;SDS011;19751;40.274;18.268;2023-07-29T07:07:30;7.70;;;1.90;;
33403;SDS011;19751;40.274;18.268;2023-07-29T07:09:55;4.40;;;1.88;;
33403;SDS011;19751;40.274;18.268;2023-07-29T07:12:21;4.03;;;2.70;;
33403;SDS011;19751;40.274;18.268;2023-07-29T07:14:47;6.90;;;2.83;;
33403;SDS011;19751;40.274;18.268;2023-07-29T07:17:12;3.60;;;1.90;;
33403;SDS011;19751;40.274;18.268;2023-07-29T07:19:38;2.10;;;1.80;;
33403;SDS011;19751;40.274;18.268;2023-07-29T07:22:04;3.20;;;1.95;;
33403;SDS011;19751;40.274;18.268;2023-07-29T07:24:30;5.65;;;2.63;;
33403;SDS011;19751;40.274;18.268;2023-07-29T07:26:56;26.48;;;4.35;;
33403;SDS011;19751;40.274;18.268;2023-07-29T07:29:21;13.05;;;3.30;;
33403;SDS011;19751;40.274;18.268;2023-07-29T07:31:51;4.63;;;1.88;;
33403;SDS011;19751;40.274;18.268;2023-07-29T07:34:18;5.15;;;2.15;;
33403;SDS011;19751;40.274;18.268;2023-07-29T07:36:44;4.80;;;2.10;;
33403;SDS011;19751;40.274;18.268;2023-07-29T07:39:11;4.22;;;2.17;;
33403;SDS011;19751;40.274;18.268;2023-07-29T07:41:37;4.70;;;2.10;;
33403;SDS011;19751;40.274;18.268;2023-07-29T07:44:03;4.90;;;2.08;;
33403;SDS011;19751;40.274;18.268;2023-07-29T07:46:28;4.80;;;2.25;;
33403;SDS011;19751;40.274;18.268;2023-07-29T07:48:54;2.67;;;1.77;;
33403;SDS011;19751;40.274;18.268;2023-07-29T07:51:20;1.83;;;1.60;;
33403;SDS011;19751;40.274;18.268;2023-07-29T07:53:45;4.07;;;2.47;;
33403;SDS011;19751;40.274;18.268;2023-07-29T07:56:11;3.20;;;1.98;;
33403;SDS011;19751;40.274;18.268;2023-07-29T07:58:37;2.33;;;1.50;;
33403;SDS011;19751;40.274;18.268;2023-07-29T08:01:03;2.75;;;1.65;;
33403;SDS011;19751;40.274;18.268;2023-07-29T08:03:33;5.20;;;2.35;;
33403;SDS011;19751;40.274;18.268;2023-07-29T08:05:59;4.05;;;2.40;;
33403;SDS011;19751;40.274;18.268;2023-07-29T08:08:25;3.33;;;2.00;;
33403;SDS011;19751;40.274;18.268;2023-07-29T08:10:54;4.53;;;2.63;;
33403;SDS011;19751;40.274;18.268;2023-07-29T08:13:22;5.63;;;2.20;;
33403;SDS011;19751;40.274;18.268;2023-07-29T08:15:49;2.08;;;1.48;;
33403;SDS011;19751;40.274;18.268;2023-07-29T08:18:17;3.63;;;1.85;;
33403;SDS011;19751;40.274;18.268;2023-07-29T08:20:55;3.42;;;2.20;;
33403;SDS011;19751;40.274;18.268;2023-07-29T08:23:25;2.80;;;2.10;;
33403;SDS011;19751;40.274;18.268;2023-07-29T08:25:51;3.00;;;2.13;;
33403;SDS011;19751;40.274;18.268;2023-07-29T08:28:26;2.53;;;2.15;;
33403;SDS011;19751;40.274;18.268;2023-07-29T08:30:55;4.35;;;1.92;;
33403;SDS011;19751;40.274;18.268;2023-07-29T08:33:21;3.50;;;2.30;;
33403;SDS011;19751;40.274;18.268;2023-07-29T08:35:46;3.60;;;1.90;;
33403;SDS011;19751;40.274;18.268;2023-07-29T08:38:12;2.42;;;2.03;;
33403;SDS011;19751;40.274;18.268;2023-07-29T08:40:39;3.55;;;2.00;;
33403;SDS011;19751;40.274;18.268;2023-07-29T08:43:08;3.30;;;1.90;;
33403;SDS011;19751;40.274;18.268;2023-07-29T08:45:36;3.10;;;1.73;;
33403;SDS011;19751;40.274;18.268;2023-07-29T08:48:04;2.90;;;1.90;;
33403;SDS011;19751;40.274;18.268;2023-07-29T08:50:33;2.70;;;2.10;;
33403;SDS011;19751;40.274;18.268;2023-07-29T08:53:01;3.42;;;1.92;;
33403;SDS011;19751;40.274;18.268;2023-07-29T08:55:30;1.83;;;1.55;;
33403;SDS011;19751;40.274;18.268;2023-07-29T08:57:56;2.53;;;2.08;;
33403;SDS011;19751;40.274;18.268;2023-07-29T09:00:23;3.05;;;1.95;;
33403;SDS011;19751;40.274;18.268;2023-07-29T09:02:50;2.78;;;1.80;;
33403;SDS011;19751;40.274;18.268;2023-07-29T09:05:15;3.47;;;1.90;;
33403;SDS011;19751;40.274;18.268;2023-07-29T09:07:41;3.08;;;1.42;;
33403;SDS011;19751;40.274;18.268;2023-07-29T09:10:09;3.90;;;1.95;;
33403;SDS011;19751;40.274;18.268;2023-07-29T09:12:36;3.25;;;1.95;;
33403;SDS011;19751;40.274;18.268;2023-07-29T09:15:01;1.60;;;1.50;;
33403;SDS011;19751;40.274;18.268;2023-07-29T09:17:31;3.80;;;1.80;;
33403;SDS011;19751;40.274;18.268;2023-07-29T09:20:01;2.10;;;1.75;;
33403;SDS011;19751;40.274;18.268;2023-07-29T09:22:27;2.20;;;1.90;;
33403;SDS011;19751;40.274;18.268;2023-07-29T09:24:53;2.08;;;1.50;;
33403;SDS011;19751;40.274;18.268;2023-07-29T09:27:25;2.72;;;1.98;;
33403;SDS011;19751;40.274;18.268;2023-07-29T09:29:52;1.80;;;1.60;;
33403;SDS011;19751;40.274;18.268;2023-07-29T09:32:22;3.38;;;1.95;;
33403;SDS011;19751;40.274;18.268;2023-07-29T09:34:49;3.17;;;1.67;;
33403;SDS011;19751;40.274;18.268;2023-07-29T09:37:17;2.33;;;1.52;;
33403;SDS011;19751;40.274;18.268;2023-07-29T09:39:46;3.40;;;1.45;;
33403;SDS011;19751;40.274;18.268;2023-07-29T09:42:19;2.28;;;1.90;;
33403;SDS011;19751;40.274;18.268;2023-07-29T09:44:45;1.73;;;1.50;;
33403;SDS011;19751;40.274;18.268;2023-07-29T09:47:22;2.63;;;2.08;;
33403;SDS011;19751;40.274;18.268;2023-07-29T09:49:49;2.13;;;1.63;;
33403;SDS011;19751;40.274;18.268;2023-07-29T09:52:16;2.70;;;1.95;;
33403;SDS011;19751;40.274;18.268;2023-07-29T09:54:47;3.10;;;1.70;;
33403;SDS011;19751;40.274;18.268;2023-07-29T09:57:16;2.88;;;1.60;;
33403;SDS011;19751;40.274;18.268;2023-07-29T09:59:52;1.92;;;1.73;;
33403;SDS011;19751;40.274;18.268;2023-07-29T10:02:19;3.28;;;2.15;;
33403;SDS011;19751;40.274;18.268;2023-07-29T10:04:46;3.38;;;1.80;;
33403;SDS011;19751;40.274;18.268;2023-07-29T10:07:12;2.10;;;1.90;;
33403;SDS011;19751;40.274;18.268;2023-07-29T10:09:38;2.28;;;2.08;;
33403;SDS011;19751;40.274;18.268;2023-07-29T10:12:05;2.65;;;1.83;;
33403;SDS011;19751;40.274;18.268;2023-07-29T10:14:32;2.30;;;1.60;;
33403;SDS011;19751;40.274;18.268;2023-07-29T10:16:58;2.65;;;1.95;;
33403;SDS011;19751;40.274;18.268;2023-07-29T10:19:25;2.35;;;1.80;;
33403;SDS011;19751;40.274;18.268;2023-07-29T10:21:51;2.05;;;1.75;;
33403;SDS011;19751;40.274;18.268;2023-07-29T10:24:22;4.60;;;1.98;;
33403;SDS011;19751;40.274;18.268;2023-07-29T10:26:53;4.30;;;1.80;;
33403;SDS011;19751;40.274;18.268;2023-07-29T10:29:23;3.58;;;2.22;;
33403;SDS011;19751;40.274;18.268;2023-07-29T10:31:51;3.00;;;1.88;;
33403;SDS011;19751;40.274;18.268;2023-07-29T10:34:18;2.95;;;1.83;;
33403;SDS011;19751;40.274;18.268;2023-07-29T10:36:46;2.97;;;1.90;;
33403;SDS011;19751;40.274;18.268;2023-07-29T10:39:13;3.05;;;2.08;;
33403;SDS011;19751;40.274;18.268;2023-07-29T10:41:55;2.55;;;1.80;;
33403;SDS011;19751;40.274;18.268;2023-07-29T10:47:13;3.42;;;1.73;;
33403;SDS011;19751;40.274;18.268;2023-07-29T10:49:44;5.43;;;2.17;;
33403;SDS011;19751;40.274;18.268;2023-07-29T10:52:15;4.07;;;2.33;;
33403;SDS011;19751;40.274;18.268;2023-07-29T10:54:45;2.63;;;2.20;;
33403;SDS011;19751;40.274;18.268;2023-07-29T10:57:15;2.33;;;1.70;;
33403;SDS011;19751;40.274;18.268;2023-07-29T10:59:56;3.63;;;1.83;;
33403;SDS011;19751;40.274;18.268;2023-07-29T11:02:28;3.70;;;2.35;;
33403;SDS011;19751;40.274;18.268;2023-07-29T11:04:54;2.85;;;1.73;;
33403;SDS011;19751;40.274;18.268;2023-07-29T11:07:21;2.65;;;2.13;;
33403;SDS011;19751;40.274;18.268;2023-07-29T11:15:26;3.13;;;1.88;;
33403;SDS011;19751;40.274;18.268;2023-07-29T11:20:20;3.90;;;1.92;;
33403;SDS011;19751;40.274;18.268;2023-07-29T11:22:47;2.40;;;2.10;;
33403;SDS011;19751;40.274;18.268;2023-07-29T11:25:15;2.95;;;1.88;;
33403;SDS011;19751;40.274;18.268;2023-07-29T11:27:42;2.92;;;1.73;;
33403;SDS011;19751;40.274;18.268;2023-07-29T11:30:10;2.10;;;1.90;;
33403;SDS011;19751;40.274;18.268;2023-07-29T11:32:36;3.42;;;1.90;;
33403;SDS011;19751;40.274;18.268;2023-07-29T11:35:04;3.45;;;1.92;;
33403;SDS011;19751;40.274;18.268;2023-07-29T11:37:35;3.00;;;1.98;;
33403;SDS011;19751;40.274;18.268;2023-07-29T11:40:00;3.80;;;1.85;;
33403;SDS011;19751;40.274;18.268;2023-07-29T11:42:27;2.50;;;2.30;;
33403;SDS011;19751;40.274;18.268;2023-07-29T11:44:56;3.22;;;2.20;;
33403;SDS011;19751;40.274;18.268;2023-07-29T11:47:22;3.30;;;2.05;;
33403;SDS011;19751;40.274;18.268;2023-07-29T11:49:48;4.30;;;2.10;;
33403;SDS011;19751;40.274;18.268;2023-07-29T11:52:13;2.85;;;2.17;;
33403;SDS011;19751;40.274;18.268;2023-07-29T11:54:39;3.13;;;1.65;;
33403;SDS011;19751;40.274;18.268;2023-07-29T11:57:08;1.75;;;1.42;;
33403;SDS011;19751;40.274;18.268;2023-07-29T11:59:35;4.82;;;1.92;;
33403;SDS011;19751;40.274;18.268;2023-07-29T12:02:05;2.33;;;1.75;;
33403;SDS011;19751;40.274;18.268;2023-07-29T12:04:34;2.95;;;1.67;;
33403;SDS011;19751;40.274;18.268;2023-07-29T12:07:00;2.70;;;1.52;;
33403;SDS011;19751;40.274;18.268;2023-07-29T12:09:27;3.40;;;1.92;;
33403;SDS011;19751;40.274;18.268;2023-07-29T12:11:53;3.65;;;2.08;;
33403;SDS011;19751;40.274;18.268;2023-07-29T12:14:19;2.03;;;1.73;;
33403;SDS011;19751;40.274;18.268;2023-07-29T12:16:48;2.72;;;1.55;;
33403;SDS011;19751;40.274;18.268;2023-07-29T12:19:15;2.55;;;1.85;;
33403;SDS011;19751;40.274;18.268;2023-07-29T12:21:41;2.60;;;1.85;;
33403;SDS011;19751;40.274;18.268;2023-07-29T12:24:07;1.95;;;1.50;;
33403;SDS011;19751;40.274;18.268;2023-07-29T12:26:33;2.03;;;1.60;;
33403;SDS011;19751;40.274;18.268;2023-07-29T12:29:10;1.60;;;1.50;;
33403;SDS011;19751;40.274;18.268;2023-07-29T12:31:40;1.67;;;1.58;;
33403;SDS011;19751;40.274;18.268;2023-07-29T12:34:06;2.85;;;1.60;;
33403;SDS011;19751;40.274;18.268;2023-07-29T12:36:47;3.25;;;2.03;;
33403;SDS011;19751;40.274;18.268;2023-07-29T12:39:25;1.58;;;1.48;;
33403;SDS011;19751;40.274;18.268;2023-07-29T12:41:53;1.95;;;1.75;;
33403;SDS011;19751;40.274;18.268;2023-07-29T12:44:20;6.57;;;1.92;;
33403;SDS011;19751;40.274;18.268;2023-07-29T12:46:48;1.75;;;1.60;;
33403;SDS011;19751;40.274;18.268;2023-07-29T12:49:13;3.72;;;1.90;;
33403;SDS011;19751;40.274;18.268;2023-07-29T12:51:39;2.88;;;1.90;;
33403;SDS011;19751;40.274;18.268;2023-07-29T12:54:05;4.30;;;2.08;;
33403;SDS011;19751;40.274;18.268;2023-07-29T12:56:34;2.42;;;1.70;;
33403;SDS011;19751;40.274;18.268;2023-07-29T12:59:00;3.30;;;2.10;;
33403;SDS011;19751;40.274;18.268;2023-07-29T13:01:26;3.85;;;2.00;;
33403;SDS011;19751;40.274;18.268;2023-07-29T13:03:53;3.05;;;2.03;;
33403;SDS011;19751;40.274;18.268;2023-07-29T13:06:19;2.67;;;2.00;;
33403;SDS011;19751;40.274;18.268;2023-07-29T13:08:45;3.30;;;1.73;;
33403;SDS011;19751;40.274;18.268;2023-07-29T13:11:12;2.75;;;2.33;;
33403;SDS011;19751;40.274;18.268;2023-07-29T13:13:38;3.88;;;1.98;;
33403;SDS011;19751;40.274;18.268;2023-07-29T13:16:03;2.80;;;2.15;;
33403;SDS011;19751;40.274;18.268;2023-07-29T13:18:29;2.15;;;1.77;;
33403;SDS011;19751;40.274;18.268;2023-07-29T13:20:55;3.53;;;1.92;;
33403;SDS011;19751;40.274;18.268;2023-07-29T13:23:21;3.15;;;2.03;;
33403;SDS011;19751;40.274;18.268;2023-07-29T13:25:47;2.58;;;2.13;;
33403;SDS011;19751;40.274;18.268;2023-07-29T13:28:12;1.83;;;1.67;;
33403;SDS011;19751;40.274;18.268;2023-07-29T13:30:38;1.73;;;1.63;;
33403;SDS011;19751;40.274;18.268;2023-07-29T13:33:04;3.83;;;1.80;;
33403;SDS011;19751;40.274;18.268;2023-07-29T13:35:30;2.70;;;2.13;;
33403;SDS011;19751;40.274;18.268;2023-07-29T13:37:56;2.28;;;1.80;;
33403;SDS011;19751;40.274;18.268;2023-07-29T13:40:21;2.13;;;1.60;;
33403;SDS011;19751;40.274;18.268;2023-07-29T13:42:47;3.20;;;1.80;;
33403;SDS011;19751;40.274;18.268;2023-07-29T13:45:12;2.35;;;1.80;;
33403;SDS011;19751;40.274;18.268;2023-07-29T13:47:38;2.45;;;2.08;;
33403;SDS011;19751;40.274;18.268;2023-07-29T13:50:03;2.90;;;1.90;;
33403;SDS011;19751;40.274;18.268;2023-07-29T13:52:29;2.08;;;1.73;;
33403;SDS011;19751;40.274;18.268;2023-07-29T13:54:55;2.33;;;1.83;;
33403;SDS011;19751;40.274;18.268;2023-07-29T13:57:20;2.20;;;1.80;;
33403;SDS011;19751;40.274;18.268;2023-07-29T13:59:46;3.42;;;2.03;;
33403;SDS011;19751;40.274;18.268;2023-07-29T14:02:12;3.35;;;2.00;;
33403;SDS011;19751;40.274;18.268;2023-07-29T14:04:38;4.20;;;2.03;;
33403;SDS011;19751;40.274;18.268;2023-07-29T14:07:04;3.03;;;2.08;;
33403;SDS011;19751;40.274;18.268;2023-07-29T14:09:29;4.05;;;2.28;;
33403;SDS011;19751;40.274;18.268;2023-07-29T14:11:55;3.35;;;2.45;;
33403;SDS011;19751;40.274;18.268;2023-07-29T14:14:20;2.08;;;1.98;;
33403;SDS011;19751;40.274;18.268;2023-07-29T14:16:46;1.75;;;1.65;;
33403;SDS011;19751;40.274;18.268;2023-07-29T14:19:12;3.47;;;1.98;;
33403;SDS011;19751;40.274;18.268;2023-07-29T14:21:38;3.13;;;2.78;;
33403;SDS011;19751;40.274;18.268;2023-07-29T14:24:03;3.40;;;3.10;;
33403;SDS011;19751;40.274;18.268;2023-07-29T14:26:29;4.43;;;3.33;;
33403;SDS011;19751;40.274;18.268;2023-07-29T14:28:55;6.22;;;3.28;;
33403;SDS011;19751;40.274;18.268;2023-07-29T14:31:20;4.30;;;2.67;;
33403;SDS011;19751;40.274;18.268;2023-07-29T14:33:47;9.63;;;3.60;;
33403;SDS011;19751;40.274;18.268;2023-07-29T14:36:14;5.20;;;3.28;;
33403;SDS011;19751;40.274;18.268;2023-07-29T14:38:39;3.78;;;3.10;;
33403;SDS011;19751;40.274;18.268;2023-07-29T14:41:05;4.90;;;3.97;;
33403;SDS011;19751;40.274;18.268;2023-07-29T14:43:30;5.07;;;3.88;;
33403;SDS011;19751;40.274;18.268;2023-07-29T14:45:56;4.80;;;4.00;;
33403;SDS011;19751;40.274;18.268;2023-07-29T14:48:22;4.88;;;4.38;;